sensor_id;sensor_type;location;lat;lon;timestamp;P1;durP1;ratioP1;P2;durP2;ratioP2
20482;SDS011;10400;53.198;6.592;2022-12-24T00:01:08;25.08;;;15.05;;
20482;SDS011;10400;53.198;6.592;2022-12-24T00:03:35;26.13;;;15.82;;
20482;SDS011;10400;53.198;6.592;2022-12-24T00:06:04;26.83;;;15.77;;
20482;SDS011;10400;53.198;6.592;2022-12-24T00:08:31;26.55;;;15.45;;
20482;SDS011;10400;53.198;6.592;2022-12-24T00:10:57;28.00;;;15.45;;
20482;SDS011;10400;53.198;6.592;2022-12-24T00:13:23;27.63;;;16.35;;
20482;SDS011;10400;53.198;6.592;2022-12-24T00:15:49;26.27;;;15.25;;
20482;SDS011;10400;53.198;6.592;2022-12-24T00:18:15;27.08;;;15.48;;
20482;SDS011;10400;53.198;6.592;2022-12-24T00:20:40;25.60;;;14.85;;
20482;SDS011;10400;53.198;6.592;2022-12-24T00:23:09;25.30;;;15.48;;
20482;SDS011;10400;53.198;6.592;2022-12-24T00:25:34;25.55;;;15.05;;
20482;SDS011;10400;53.198;6.592;2022-12-24T00:28:00;27.75;;;14.70;;
20482;SDS011;10400;53.198;6.592;2022-12-24T00:30:26;25.35;;;15.45;;
20482;SDS011;10400;53.198;6.592;2022-12-24T00:32:51;26.63;;;15.27;;
20482;SDS011;10400;53.198;6.592;2022-12-24T00:35:17;25.23;;;15.15;;
20482;SDS011;10400;53.198;6.592;2022-12-24T00:37:45;24.92;;;15.68;;
20482;SDS011;10400;53.198;6.592;2022-12-24T00:40:12;24.33;;;14.65;;
20482;SDS011;10400;53.198;6.592;2022-12-24T00:42:38;24.20;;;14.88;;
20482;SDS011;10400;53.198;6.592;2022-12-24T00:45:04;30.08;;;16.48;;
20482;SDS011;10400;53.198;6.592;2022-12-24T00:47:30;25.70;;;15.65;;
20482;SDS011;10400;53.198;6.592;2022-12-24T00:49:55;27.98;;;16.80;;
20482;SDS011;10400;53.198;6.592;2022-12-24T00:52:21;32.42;;;19.02;;
20482;SDS011;10400;53.198;6.592;2022-12-24T00:54:47;43.60;;;23.85;;
20482;SDS011;10400;53.198;6.592;2022-12-24T00:57:12;43.35;;;24.70;;
20482;SDS011;10400;53.198;6.592;2022-12-24T00:59:38;49.22;;;26.77;;
20482;SDS011;10400;53.198;6.592;2022-12-24T01:02:03;45.25;;;24.52;;
20482;SDS011;10400;53.198;6.592;2022-12-24T01:04:29;44.22;;;23.55;;
20482;SDS011;10400;53.198;6.592;2022-12-24T01:07:13;35.08;;;20.05;;
20482;SDS011;10400;53.198;6.592;2022-12-24T01:09:39;30.65;;;17.40;;
20482;SDS011;10400;53.198;6.592;2022-12-24T01:12:05;38.63;;;21.70;;
20482;SDS011;10400;53.198;6.592;2022-12-24T01:14:30;37.63;;;20.95;;
20482;SDS011;10400;53.198;6.592;2022-12-24T01:16:56;36.13;;;20.95;;
20482;SDS011;10400;53.198;6.592;2022-12-24T01:19:21;46.33;;;25.08;;
20482;SDS011;10400;53.198;6.592;2022-12-24T01:21:47;46.42;;;26.42;;
20482;SDS011;10400;53.198;6.592;2022-12-24T01:24:13;43.78;;;23.83;;
20482;SDS011;10400;53.198;6.592;2022-12-24T01:26:40;30.65;;;17.88;;
20482;SDS011;10400;53.198;6.592;2022-12-24T01:29:06;31.25;;;17.48;;
20482;SDS011;10400;53.198;6.592;2022-12-24T01:31:32;29.23;;;17.23;;
20482;SDS011;10400;53.198;6.592;2022-12-24T01:33:57;27.92;;;16.33;;
20482;SDS011;10400;53.198;6.592;2022-12-24T01:36:23;29.02;;;16.67;;
20482;SDS011;10400;53.198;6.592;2022-12-24T01:38:48;26.02;;;16.48;;
20482;SDS011;10400;53.198;6.592;2022-12-24T01:41:18;27.48;;;15.10;;
20482;SDS011;10400;53.198;6.592;2022-12-24T01:49:32;26.75;;;15.98;;
20482;SDS011;10400;53.198;6.592;2022-12-24T01:52:00;25.73;;;15.77;;
20482;SDS011;10400;53.198;6.592;2022-12-24T01:54:32;25.88;;;16.38;;
20482;SDS011;10400;53.198;6.592;2022-12-24T01:57:24;29.00;;;15.77;;
20482;SDS011;10400;53.198;6.592;2022-12-24T01:59:57;26.02;;;15.57;;
20482;SDS011;10400;53.198;6.592;2022-12-24T02:02:28;24.67;;;15.50;;
20482;SDS011;10400;53.198;6.592;2022-12-24T02:04:56;26.05;;;15.90;;
20482;SDS011;10400;53.198;6.592;2022-12-24T02:07:26;25.35;;;14.98;;
20482;SDS011;10400;53.198;6.592;2022-12-24T02:09:57;26.55;;;15.98;;
20482;SDS011;10400;53.198;6.592;2022-12-24T02:12:25;25.90;;;15.68;;
20482;SDS011;10400;53.198;6.592;2022-12-24T02:14:53;22.65;;;14.30;;
20482;SDS011;10400;53.198;6.592;2022-12-24T02:17:30;26.65;;;15.93;;
20482;SDS011;10400;53.198;6.592;2022-12-24T02:25:25;21.48;;;14.60;;
20482;SDS011;10400;53.198;6.592;2022-12-24T02:28:11;24.30;;;16.33;;
20482;SDS011;10400;53.198;6.592;2022-12-24T02:31:05;23.95;;;15.05;;
20482;SDS011;10400;53.198;6.592;2022-12-24T02:33:41;24.98;;;15.60;;
20482;SDS011;10400;53.198;6.592;2022-12-24T02:36:13;25.13;;;15.25;;
20482;SDS011;10400;53.198;6.592;2022-12-24T02:38:45;24.25;;;14.50;;
20482;SDS011;10400;53.198;6.592;2022-12-24T02:44:15;23.92;;;15.35;;
20482;SDS011;10400;53.198;6.592;2022-12-24T02:46:42;26.52;;;15.95;;
20482;SDS011;10400;53.198;6.592;2022-12-24T02:49:08;24.70;;;15.65;;
20482;SDS011;10400;53.198;6.592;2022-12-24T02:51:33;25.25;;;15.65;;
20482;SDS011;10400;53.198;6.592;2022-12-24T02:53:59;24.90;;;15.52;;
20482;SDS011;10400;53.198;6.592;2022-12-24T03:02:00;23.92;;;15.02;;
20482;SDS011;10400;53.198;6.592;2022-12-24T03:13:33;27.98;;;15.75;;
20482;SDS011;10400;53.198;6.592;2022-12-24T03:15:59;28.35;;;17.23;;
20482;SDS011;10400;53.198;6.592;2022-12-24T03:18:29;29.75;;;17.83;;
20482;SDS011;10400;53.198;6.592;2022-12-24T03:23:33;30.65;;;17.75;;
20482;SDS011;10400;53.198;6.592;2022-12-24T03:26:00;29.35;;;16.75;;
20482;SDS011;10400;53.198;6.592;2022-12-24T03:28:29;27.35;;;16.88;;
20482;SDS011;10400;53.198;6.592;2022-12-24T03:30:55;29.10;;;16.67;;
20482;SDS011;10400;53.198;6.592;2022-12-24T03:33:24;27.25;;;16.08;;
20482;SDS011;10400;53.198;6.592;2022-12-24T03:35:50;29.92;;;15.25;;
20482;SDS011;10400;53.198;6.592;2022-12-24T03:38:16;30.85;;;15.55;;
20482;SDS011;10400;53.198;6.592;2022-12-24T03:40:41;26.25;;;14.68;;
20482;SDS011;10400;53.198;6.592;2022-12-24T03:43:07;31.25;;;15.05;;
20482;SDS011;10400;53.198;6.592;2022-12-24T03:45:32;26.33;;;13.73;;
20482;SDS011;10400;53.198;6.592;2022-12-24T03:47:58;24.42;;;11.70;;
20482;SDS011;10400;53.198;6.592;2022-12-24T03:50:24;26.50;;;11.95;;
20482;SDS011;10400;53.198;6.592;2022-12-24T03:52:49;20.70;;;10.65;;
20482;SDS011;10400;53.198;6.592;2022-12-24T03:55:15;19.75;;;9.70;;
20482;SDS011;10400;53.198;6.592;2022-12-24T03:57:41;19.27;;;10.02;;
20482;SDS011;10400;53.198;6.592;2022-12-24T04:00:06;23.73;;;10.55;;
20482;SDS011;10400;53.198;6.592;2022-12-24T04:02:33;21.58;;;10.05;;
20482;SDS011;10400;53.198;6.592;2022-12-24T04:04:58;24.60;;;9.93;;
20482;SDS011;10400;53.198;6.592;2022-12-24T04:07:24;23.85;;;10.88;;
20482;SDS011;10400;53.198;6.592;2022-12-24T04:09:49;27.42;;;11.25;;
20482;SDS011;10400;53.198;6.592;2022-12-24T04:12:15;19.05;;;9.60;;
20482;SDS011;10400;53.198;6.592;2022-12-24T04:14:41;26.58;;;12.15;;
20482;SDS011;10400;53.198;6.592;2022-12-24T04:17:06;26.02;;;10.60;;
20482;SDS011;10400;53.198;6.592;2022-12-24T04:19:32;30.83;;;11.25;;
20482;SDS011;10400;53.198;6.592;2022-12-24T04:21:57;24.23;;;11.32;;
20482;SDS011;10400;53.198;6.592;2022-12-24T04:24:23;33.10;;;12.68;;
20482;SDS011;10400;53.198;6.592;2022-12-24T04:26:49;26.55;;;11.23;;
20482;SDS011;10400;53.198;6.592;2022-12-24T04:29:14;23.48;;;9.68;;
20482;SDS011;10400;53.198;6.592;2022-12-24T04:31:40;21.33;;;9.98;;
20482;SDS011;10400;53.198;6.592;2022-12-24T04:34:06;21.33;;;9.98;;
20482;SDS011;10400;53.198;6.592;2022-12-24T04:36:31;29.95;;;9.90;;
20482;SDS011;10400;53.198;6.592;2022-12-24T04:38:57;31.05;;;9.85;;
20482;SDS011;10400;53.198;6.592;2022-12-24T04:41:23;34.38;;;10.02;;
20482;SDS011;10400;53.198;6.592;2022-12-24T04:43:49;32.30;;;8.23;;
20482;SDS011;10400;53.198;6.592;2022-12-24T04:46:17;36.97;;;7.22;;
20482;SDS011;10400;53.198;6.592;2022-12-24T04:48:45;35.67;;;7.40;;
20482;SDS011;10400;53.198;6.592;2022-12-24T04:51:12;42.40;;;7.10;;
20482;SDS011;10400;53.198;6.592;2022-12-24T04:53:39;34.38;;;5.93;;
20482;SDS011;10400;53.198;6.592;2022-12-24T04:56:12;44.50;;;6.47;;
20482;SDS011;10400;53.198;6.592;2022-12-24T04:58:40;45.88;;;6.47;;
20482;SDS011;10400;53.198;6.592;2022-12-24T05:01:07;37.83;;;6.38;;
20482;SDS011;10400;53.198;6.592;2022-12-24T05:03:35;51.05;;;6.35;;
20482;SDS011;10400;53.198;6.592;2022-12-24T05:06:05;40.40;;;5.47;;
20482;SDS011;10400;53.198;6.592;2022-12-24T05:08:33;44.97;;;6.10;;
20482;SDS011;10400;53.198;6.592;2022-12-24T05:10:59;43.80;;;5.05;;
20482;SDS011;10400;53.198;6.592;2022-12-24T05:13:25;31.27;;;4.95;;
20482;SDS011;10400;53.198;6.592;2022-12-24T05:15:52;41.50;;;5.78;;
20482;SDS011;10400;53.198;6.592;2022-12-24T05:18:18;40.63;;;6.60;;
20482;SDS011;10400;53.198;6.592;2022-12-24T05:20:44;40.10;;;5.75;;
20482;SDS011;10400;53.198;6.592;2022-12-24T05:23:21;40.45;;;5.88;;
20482;SDS011;10400;53.198;6.592;2022-12-24T05:26:49;42.88;;;5.35;;
20482;SDS011;10400;53.198;6.592;2022-12-24T05:29:00;35.33;;;6.82;;
20482;SDS011;10400;53.198;6.592;2022-12-24T05:31:28;34.00;;;5.70;;
20482;SDS011;10400;53.198;6.592;2022-12-24T05:33:55;41.35;;;6.40;;
20482;SDS011;10400;53.198;6.592;2022-12-24T05:36:21;40.20;;;5.97;;
20482;SDS011;10400;53.198;6.592;2022-12-24T05:38:48;41.13;;;5.95;;
20482;SDS011;10400;53.198;6.592;2022-12-24T05:41:14;36.92;;;6.07;;
20482;SDS011;10400;53.198;6.592;2022-12-24T05:43:40;36.20;;;4.97;;
20482;SDS011;10400;53.198;6.592;2022-12-24T05:46:07;41.05;;;5.32;;
20482;SDS011;10400;53.198;6.592;2022-12-24T05:48:34;38.50;;;7.00;;
20482;SDS011;10400;53.198;6.592;2022-12-24T05:51:02;38.60;;;5.95;;
20482;SDS011;10400;53.198;6.592;2022-12-24T05:53:32;37.30;;;5.18;;
20482;SDS011;10400;53.198;6.592;2022-12-24T05:56:09;38.22;;;5.72;;
20482;SDS011;10400;53.198;6.592;2022-12-24T05:58:36;38.80;;;5.88;;
20482;SDS011;10400;53.198;6.592;2022-12-24T06:01:03;34.70;;;5.15;;
20482;SDS011;10400;53.198;6.592;2022-12-24T06:03:29;44.80;;;6.15;;
20482;SDS011;10400;53.198;6.592;2022-12-24T06:08:24;42.13;;;6.30;;
20482;SDS011;10400;53.198;6.592;2022-12-24T06:10:54;42.58;;;5.88;;
20482;SDS011;10400;53.198;6.592;2022-12-24T06:13:23;41.70;;;7.00;;
20482;SDS011;10400;53.198;6.592;2022-12-24T06:15:50;38.65;;;5.15;;
20482;SDS011;10400;53.198;6.592;2022-12-24T06:18:18;41.05;;;5.78;;
20482;SDS011;10400;53.198;6.592;2022-12-24T06:20:44;35.90;;;6.18;;
20482;SDS011;10400;53.198;6.592;2022-12-24T06:23:10;44.05;;;5.53;;
20482;SDS011;10400;53.198;6.592;2022-12-24T06:25:35;40.47;;;5.75;;
20482;SDS011;10400;53.198;6.592;2022-12-24T06:28:01;38.80;;;5.65;;
20482;SDS011;10400;53.198;6.592;2022-12-24T06:30:26;40.42;;;6.72;;
20482;SDS011;10400;53.198;6.592;2022-12-24T06:32:52;38.97;;;6.20;;
20482;SDS011;10400;53.198;6.592;2022-12-24T06:35:17;40.53;;;5.50;;
20482;SDS011;10400;53.198;6.592;2022-12-24T06:37:43;36.35;;;5.45;;
20482;SDS011;10400;53.198;6.592;2022-12-24T06:40:09;43.40;;;5.47;;
20482;SDS011;10400;53.198;6.592;2022-12-24T06:42:34;44.60;;;5.60;;
20482;SDS011;10400;53.198;6.592;2022-12-24T06:45:00;41.83;;;5.28;;
20482;SDS011;10400;53.198;6.592;2022-12-24T06:47:26;44.45;;;7.30;;
20482;SDS011;10400;53.198;6.592;2022-12-24T06:49:51;47.97;;;6.13;;
20482;SDS011;10400;53.198;6.592;2022-12-24T06:52:17;38.95;;;5.55;;
20482;SDS011;10400;53.198;6.592;2022-12-24T06:54:42;40.20;;;5.95;;
20482;SDS011;10400;53.198;6.592;2022-12-24T06:57:08;41.30;;;5.63;;
20482;SDS011;10400;53.198;6.592;2022-12-24T06:59:34;35.63;;;5.70;;
20482;SDS011;10400;53.198;6.592;2022-12-24T07:01:59;37.95;;;6.28;;
20482;SDS011;10400;53.198;6.592;2022-12-24T07:04:25;39.22;;;6.43;;
20482;SDS011;10400;53.198;6.592;2022-12-24T07:06:51;35.75;;;5.53;;
20482;SDS011;10400;53.198;6.592;2022-12-24T07:09:17;26.67;;;5.05;;
20482;SDS011;10400;53.198;6.592;2022-12-24T07:11:42;46.60;;;5.47;;
20482;SDS011;10400;53.198;6.592;2022-12-24T07:14:08;37.33;;;5.35;;
20482;SDS011;10400;53.198;6.592;2022-12-24T07:16:34;37.42;;;5.53;;
20482;SDS011;10400;53.198;6.592;2022-12-24T07:18:59;31.92;;;5.38;;
20482;SDS011;10400;53.198;6.592;2022-12-24T07:21:25;40.47;;;6.10;;
20482;SDS011;10400;53.198;6.592;2022-12-24T07:23:50;39.45;;;5.05;;
20482;SDS011;10400;53.198;6.592;2022-12-24T07:26:16;40.75;;;5.22;;
20482;SDS011;10400;53.198;6.592;2022-12-24T07:28:42;42.08;;;5.53;;
20482;SDS011;10400;53.198;6.592;2022-12-24T07:31:07;43.03;;;5.93;;
20482;SDS011;10400;53.198;6.592;2022-12-24T07:33:33;42.60;;;5.18;;
20482;SDS011;10400;53.198;6.592;2022-12-24T07:36:03;45.22;;;5.53;;
20482;SDS011;10400;53.198;6.592;2022-12-24T07:38:31;49.65;;;6.22;;
20482;SDS011;10400;53.198;6.592;2022-12-24T07:40:57;40.17;;;5.60;;
20482;SDS011;10400;53.198;6.592;2022-12-24T07:43:24;36.50;;;6.15;;
20482;SDS011;10400;53.198;6.592;2022-12-24T07:45:53;39.60;;;6.70;;
20482;SDS011;10400;53.198;6.592;2022-12-24T07:48:22;43.90;;;5.88;;
20482;SDS011;10400;53.198;6.592;2022-12-24T07:50:49;43.75;;;5.55;;
20482;SDS011;10400;53.198;6.592;2022-12-24T07:53:15;41.67;;;6.43;;
20482;SDS011;10400;53.198;6.592;2022-12-24T07:55:42;46.25;;;6.45;;
20482;SDS011;10400;53.198;6.592;2022-12-24T07:58:08;37.67;;;5.22;;
20482;SDS011;10400;53.198;6.592;2022-12-24T08:00:33;43.13;;;5.97;;
20482;SDS011;10400;53.198;6.592;2022-12-24T08:02:59;37.67;;;6.07;;
20482;SDS011;10400;53.198;6.592;2022-12-24T08:05:25;36.08;;;5.30;;
20482;SDS011;10400;53.198;6.592;2022-12-24T08:07:51;36.42;;;5.53;;
20482;SDS011;10400;53.198;6.592;2022-12-24T08:10:17;30.92;;;5.75;;
20482;SDS011;10400;53.198;6.592;2022-12-24T08:12:43;42.22;;;5.10;;
20482;SDS011;10400;53.198;6.592;2022-12-24T08:15:09;45.85;;;5.78;;
20482;SDS011;10400;53.198;6.592;2022-12-24T08:17:35;39.00;;;5.75;;
20482;SDS011;10400;53.198;6.592;2022-12-24T08:20:01;50.33;;;6.30;;
20482;SDS011;10400;53.198;6.592;2022-12-24T08:22:28;44.30;;;6.05;;
20482;SDS011;10400;53.198;6.592;2022-12-24T08:24:53;34.58;;;5.47;;
20482;SDS011;10400;53.198;6.592;2022-12-24T08:27:19;30.48;;;5.47;;
20482;SDS011;10400;53.198;6.592;2022-12-24T08:29:45;48.70;;;5.85;;
20482;SDS011;10400;53.198;6.592;2022-12-24T08:32:10;39.17;;;6.47;;
20482;SDS011;10400;53.198;6.592;2022-12-24T08:34:36;47.83;;;6.57;;
20482;SDS011;10400;53.198;6.592;2022-12-24T08:37:01;49.10;;;6.05;;
20482;SDS011;10400;53.198;6.592;2022-12-24T08:39:27;43.72;;;7.30;;
20482;SDS011;10400;53.198;6.592;2022-12-24T08:41:53;38.80;;;6.70;;
20482;SDS011;10400;53.198;6.592;2022-12-24T08:44:18;40.85;;;5.97;;
20482;SDS011;10400;53.198;6.592;2022-12-24T08:46:44;26.42;;;5.55;;
20482;SDS011;10400;53.198;6.592;2022-12-24T08:49:10;32.70;;;6.10;;
20482;SDS011;10400;53.198;6.592;2022-12-24T08:51:36;38.92;;;5.70;;
20482;SDS011;10400;53.198;6.592;2022-12-24T08:54:02;39.55;;;6.30;;
20482;SDS011;10400;53.198;6.592;2022-12-24T08:56:27;47.78;;;7.03;;
20482;SDS011;10400;53.198;6.592;2022-12-24T08:58:53;42.40;;;5.85;;
20482;SDS011;10400;53.198;6.592;2022-12-24T09:01:19;34.80;;;5.65;;
20482;SDS011;10400;53.198;6.592;2022-12-24T09:03:45;36.78;;;5.90;;
20482;SDS011;10400;53.198;6.592;2022-12-24T09:06:11;30.88;;;5.43;;
20482;SDS011;10400;53.198;6.592;2022-12-24T09:08:37;43.13;;;6.22;;
20482;SDS011;10400;53.198;6.592;2022-12-24T09:11:04;30.17;;;5.35;;
20482;SDS011;10400;53.198;6.592;2022-12-24T09:13:34;33.17;;;5.65;;
20482;SDS011;10400;53.198;6.592;2022-12-24T09:16:00;40.58;;;7.55;;
20482;SDS011;10400;53.198;6.592;2022-12-24T09:18:26;39.55;;;6.25;;
20482;SDS011;10400;53.198;6.592;2022-12-24T09:20:59;50.65;;;9.25;;
20482;SDS011;10400;53.198;6.592;2022-12-24T09:23:29;40.42;;;9.82;;
20482;SDS011;10400;53.198;6.592;2022-12-24T09:25:55;48.95;;;9.00;;
20482;SDS011;10400;53.198;6.592;2022-12-24T09:28:21;43.80;;;7.47;;
20482;SDS011;10400;53.198;6.592;2022-12-24T09:30:56;25.10;;;5.68;;
20482;SDS011;10400;53.198;6.592;2022-12-24T09:33:23;42.88;;;6.68;;
20482;SDS011;10400;53.198;6.592;2022-12-24T09:35:50;32.90;;;5.60;;
20482;SDS011;10400;53.198;6.592;2022-12-24T09:38:17;37.50;;;5.68;;
20482;SDS011;10400;53.198;6.592;2022-12-24T09:40:43;40.83;;;5.95;;
20482;SDS011;10400;53.198;6.592;2022-12-24T09:45:43;37.00;;;5.05;;
20482;SDS011;10400;53.198;6.592;2022-12-24T09:48:16;44.08;;;5.85;;
20482;SDS011;10400;53.198;6.592;2022-12-24T09:53:46;42.78;;;5.93;;
20482;SDS011;10400;53.198;6.592;2022-12-24T09:56:20;34.30;;;5.30;;
20482;SDS011;10400;53.198;6.592;2022-12-24T09:58:52;35.40;;;5.55;;
20482;SDS011;10400;53.198;6.592;2022-12-24T10:01:22;36.72;;;5.55;;
20482;SDS011;10400;53.198;6.592;2022-12-24T10:03:48;32.70;;;5.78;;
20482;SDS011;10400;53.198;6.592;2022-12-24T10:06:18;33.88;;;5.75;;
20482;SDS011;10400;53.198;6.592;2022-12-24T10:16:58;33.53;;;5.80;;
20482;SDS011;10400;53.198;6.592;2022-12-24T10:28:14;33.03;;;5.68;;
20482;SDS011;10400;53.198;6.592;2022-12-24T10:30:49;32.83;;;5.15;;
20482;SDS011;10400;53.198;6.592;2022-12-24T10:33:21;40.45;;;6.30;;
20482;SDS011;10400;53.198;6.592;2022-12-24T10:35:59;34.03;;;5.82;;
20482;SDS011;10400;53.198;6.592;2022-12-24T10:38:24;32.95;;;5.32;;
20482;SDS011;10400;53.198;6.592;2022-12-24T10:40:51;40.53;;;7.38;;
20482;SDS011;10400;53.198;6.592;2022-12-24T10:43:23;38.88;;;8.25;;
20482;SDS011;10400;53.198;6.592;2022-12-24T10:45:58;37.42;;;6.80;;
20482;SDS011;10400;53.198;6.592;2022-12-24T10:49:12;41.15;;;6.97;;
20482;SDS011;10400;53.198;6.592;2022-12-24T10:54:07;28.90;;;4.88;;
20482;SDS011;10400;53.198;6.592;2022-12-24T10:56:41;33.75;;;6.18;;
20482;SDS011;10400;53.198;6.592;2022-12-24T10:59:29;38.22;;;6.53;;
20482;SDS011;10400;53.198;6.592;2022-12-24T11:02:00;31.42;;;4.93;;
20482;SDS011;10400;53.198;6.592;2022-12-24T11:04:27;33.75;;;6.30;;
20482;SDS011;10400;53.198;6.592;2022-12-24T11:06:58;32.65;;;5.68;;
20482;SDS011;10400;53.198;6.592;2022-12-24T11:12:00;32.83;;;5.78;;
20482;SDS011;10400;53.198;6.592;2022-12-24T11:14:32;29.33;;;4.30;;
20482;SDS011;10400;53.198;6.592;2022-12-24T11:16:59;35.25;;;5.60;;
20482;SDS011;10400;53.198;6.592;2022-12-24T11:19:29;28.42;;;5.70;;
20482;SDS011;10400;53.198;6.592;2022-12-24T11:22:04;35.55;;;5.07;;
20482;SDS011;10400;53.198;6.592;2022-12-24T11:24:56;32.00;;;4.90;;
20482;SDS011;10400;53.198;6.592;2022-12-24T11:27:39;28.88;;;5.28;;
20482;SDS011;10400;53.198;6.592;2022-12-24T11:35:30;35.97;;;4.43;;
20482;SDS011;10400;53.198;6.592;2022-12-24T11:40:32;26.38;;;4.55;;
20482;SDS011;10400;53.198;6.592;2022-12-24T11:43:04;22.13;;;4.32;;
20482;SDS011;10400;53.198;6.592;2022-12-24T11:45:31;29.27;;;4.47;;
20482;SDS011;10400;53.198;6.592;2022-12-24T11:47:58;27.90;;;4.85;;
20482;SDS011;10400;53.198;6.592;2022-12-24T11:50:26;19.63;;;3.67;;
20482;SDS011;10400;53.198;6.592;2022-12-24T12:00:46;19.52;;;4.32;;
20482;SDS011;10400;53.198;6.592;2022-12-24T12:03:29;30.13;;;5.00;;
20482;SDS011;10400;53.198;6.592;2022-12-24T12:05:59;22.40;;;3.75;;
20482;SDS011;10400;53.198;6.592;2022-12-24T12:08:27;24.05;;;5.25;;
20482;SDS011;10400;53.198;6.592;2022-12-24T12:10:55;33.28;;;4.53;;
20482;SDS011;10400;53.198;6.592;2022-12-24T12:13:28;35.42;;;4.57;;
20482;SDS011;10400;53.198;6.592;2022-12-24T12:16:21;19.35;;;4.07;;
20482;SDS011;10400;53.198;6.592;2022-12-24T12:19:15;23.80;;;4.10;;
20482;SDS011;10400;53.198;6.592;2022-12-24T12:21:44;25.70;;;4.07;;
20482;SDS011;10400;53.198;6.592;2022-12-24T12:24:12;29.05;;;5.05;;
20482;SDS011;10400;53.198;6.592;2022-12-24T12:27:06;20.42;;;3.85;;
20482;SDS011;10400;53.198;6.592;2022-12-24T12:29:49;21.98;;;4.03;;
20482;SDS011;10400;53.198;6.592;2022-12-24T12:32:58;20.65;;;3.55;;
20482;SDS011;10400;53.198;6.592;2022-12-24T12:35:34;23.67;;;4.13;;
20482;SDS011;10400;53.198;6.592;2022-12-24T12:38:04;26.85;;;4.10;;
20482;SDS011;10400;53.198;6.592;2022-12-24T12:46:04;30.73;;;5.57;;
20482;SDS011;10400;53.198;6.592;2022-12-24T12:48:45;24.63;;;3.47;;
20482;SDS011;10400;53.198;6.592;2022-12-24T12:51:48;19.98;;;3.33;;
20482;SDS011;10400;53.198;6.592;2022-12-24T12:54:19;30.42;;;4.70;;
20482;SDS011;10400;53.198;6.592;2022-12-24T12:57:03;22.35;;;5.22;;
20482;SDS011;10400;53.198;6.592;2022-12-24T12:59:37;22.45;;;3.75;;
20482;SDS011;10400;53.198;6.592;2022-12-24T13:02:16;26.90;;;4.05;;
20482;SDS011;10400;53.198;6.592;2022-12-24T13:04:57;21.30;;;3.80;;
20482;SDS011;10400;53.198;6.592;2022-12-24T13:07:58;28.70;;;4.18;;
20482;SDS011;10400;53.198;6.592;2022-12-24T13:21:24;23.20;;;3.97;;
20482;SDS011;10400;53.198;6.592;2022-12-24T13:26:42;20.77;;;4.57;;
20482;SDS011;10400;53.198;6.592;2022-12-24T13:29:30;24.52;;;4.68;;
20482;SDS011;10400;53.198;6.592;2022-12-24T13:37:41;21.48;;;3.15;;
20482;SDS011;10400;53.198;6.592;2022-12-24T13:50:39;19.38;;;3.45;;
20482;SDS011;10400;53.198;6.592;2022-12-24T13:54:13;19.77;;;3.25;;
20482;SDS011;10400;53.198;6.592;2022-12-24T13:58:45;26.35;;;3.65;;
20482;SDS011;10400;53.198;6.592;2022-12-24T14:01:19;20.80;;;3.08;;
20482;SDS011;10400;53.198;6.592;2022-12-24T14:03:56;23.70;;;3.97;;
20482;SDS011;10400;53.198;6.592;2022-12-24T14:06:29;23.02;;;3.42;;
20482;SDS011;10400;53.198;6.592;2022-12-24T14:09:05;24.70;;;4.03;;
20482;SDS011;10400;53.198;6.592;2022-12-24T14:14:25;21.15;;;4.32;;
20482;SDS011;10400;53.198;6.592;2022-12-24T14:17:02;22.33;;;4.97;;
20482;SDS011;10400;53.198;6.592;2022-12-24T14:24:57;18.80;;;4.03;;
20482;SDS011;10400;53.198;6.592;2022-12-24T14:30:07;18.05;;;3.20;;
20482;SDS011;10400;53.198;6.592;2022-12-24T14:32:37;26.92;;;4.00;;
20482;SDS011;10400;53.198;6.592;2022-12-24T14:35:23;20.70;;;3.65;;
20482;SDS011;10400;53.198;6.592;2022-12-24T14:37:56;24.55;;;4.05;;
20482;SDS011;10400;53.198;6.592;2022-12-24T14:40:31;21.70;;;3.88;;
20482;SDS011;10400;53.198;6.592;2022-12-24T14:43:27;15.15;;;3.10;;
20482;SDS011;10400;53.198;6.592;2022-12-24T14:45:58;18.38;;;3.30;;
20482;SDS011;10400;53.198;6.592;2022-12-24T14:51:38;16.63;;;3.38;;
20482;SDS011;10400;53.198;6.592;2022-12-24T14:54:09;20.60;;;3.42;;
20482;SDS011;10400;53.198;6.592;2022-12-24T14:56:37;22.20;;;3.45;;
20482;SDS011;10400;53.198;6.592;2022-12-24T14:59:16;21.10;;;3.33;;
20482;SDS011;10400;53.198;6.592;2022-12-24T15:01:43;20.25;;;3.55;;
20482;SDS011;10400;53.198;6.592;2022-12-24T15:06:36;12.82;;;3.42;;
20482;SDS011;10400;53.198;6.592;2022-12-24T15:09:04;15.27;;;3.83;;
20482;SDS011;10400;53.198;6.592;2022-12-24T15:11:37;28.92;;;4.32;;
20482;SDS011;10400;53.198;6.592;2022-12-24T15:14:03;18.83;;;3.60;;
20482;SDS011;10400;53.198;6.592;2022-12-24T15:16:30;16.13;;;4.15;;
20482;SDS011;10400;53.198;6.592;2022-12-24T15:19:41;24.60;;;3.55;;
20482;SDS011;10400;53.198;6.592;2022-12-24T15:21:50;16.60;;;3.50;;
20482;SDS011;10400;53.198;6.592;2022-12-24T15:24:23;15.32;;;3.35;;
20482;SDS011;10400;53.198;6.592;2022-12-24T15:26:50;19.27;;;3.47;;
20482;SDS011;10400;53.198;6.592;2022-12-24T15:29:20;21.25;;;4.43;;
20482;SDS011;10400;53.198;6.592;2022-12-24T15:31:55;24.50;;;4.18;;
20482;SDS011;10400;53.198;6.592;2022-12-24T15:39:38;20.55;;;3.83;;
20482;SDS011;10400;53.198;6.592;2022-12-24T15:42:06;11.98;;;3.03;;
20482;SDS011;10400;53.198;6.592;2022-12-24T15:44:43;22.50;;;4.32;;
20482;SDS011;10400;53.198;6.592;2022-12-24T15:47:14;17.10;;;3.53;;
20482;SDS011;10400;53.198;6.592;2022-12-24T15:49:43;17.20;;;3.58;;
20482;SDS011;10400;53.198;6.592;2022-12-24T15:52:14;24.73;;;4.15;;
20482;SDS011;10400;53.198;6.592;2022-12-24T15:54:44;14.30;;;3.15;;
20482;SDS011;10400;53.198;6.592;2022-12-24T15:57:25;21.75;;;4.35;;
20482;SDS011;10400;53.198;6.592;2022-12-24T15:59:55;24.77;;;4.28;;
20482;SDS011;10400;53.198;6.592;2022-12-24T16:07:58;19.35;;;4.80;;
20482;SDS011;10400;53.198;6.592;2022-12-24T16:11:06;20.85;;;3.80;;
20482;SDS011;10400;53.198;6.592;2022-12-24T16:13:35;18.58;;;4.00;;
20482;SDS011;10400;53.198;6.592;2022-12-24T16:16:06;13.35;;;3.92;;
20482;SDS011;10400;53.198;6.592;2022-12-24T16:18:38;18.73;;;4.10;;
20482;SDS011;10400;53.198;6.592;2022-12-24T16:24:01;22.08;;;4.07;;
20482;SDS011;10400;53.198;6.592;2022-12-24T16:26:34;27.60;;;11.52;;
20482;SDS011;10400;53.198;6.592;2022-12-24T16:29:02;27.08;;;6.38;;
20482;SDS011;10400;53.198;6.592;2022-12-24T16:31:32;19.67;;;4.25;;
20482;SDS011;10400;53.198;6.592;2022-12-24T16:34:00;16.98;;;4.03;;
20482;SDS011;10400;53.198;6.592;2022-12-24T16:36:27;21.42;;;4.00;;
20482;SDS011;10400;53.198;6.592;2022-12-24T16:38:55;15.70;;;4.40;;
20482;SDS011;10400;53.198;6.592;2022-12-24T16:41:40;22.05;;;4.47;;
20482;SDS011;10400;53.198;6.592;2022-12-24T16:44:24;20.67;;;5.03;;
20482;SDS011;10400;53.198;6.592;2022-12-24T16:46:51;19.30;;;5.03;;
20482;SDS011;10400;53.198;6.592;2022-12-24T16:49:17;22.42;;;5.60;;
20482;SDS011;10400;53.198;6.592;2022-12-24T16:51:44;22.17;;;5.78;;
20482;SDS011;10400;53.198;6.592;2022-12-24T16:54:11;24.25;;;5.68;;
20482;SDS011;10400;53.198;6.592;2022-12-24T16:56:37;23.13;;;6.15;;
20482;SDS011;10400;53.198;6.592;2022-12-24T16:59:03;20.75;;;5.75;;
20482;SDS011;10400;53.198;6.592;2022-12-24T17:01:29;19.80;;;6.15;;
20482;SDS011;10400;53.198;6.592;2022-12-24T17:03:55;21.08;;;6.18;;
20482;SDS011;10400;53.198;6.592;2022-12-24T17:06:20;25.13;;;5.50;;
20482;SDS011;10400;53.198;6.592;2022-12-24T17:08:47;18.13;;;4.97;;
20482;SDS011;10400;53.198;6.592;2022-12-24T17:11:13;20.55;;;4.63;;